sensor_id;sensor_type;location;lat;lon;timestamp;P1;durP1;ratioP1;P2;durP2;ratioP2
17171;SDS011;8701;50.150;8.756;2023-08-17T00:03:23;2.47;;;2.20;;
17171;SDS011;8701;50.150;8.756;2023-08-17T00:07:25;7.13;;;2.53;;
17171;SDS011;8701;50.150;8.756;2023-08-17T00:11:29;6.20;;;2.63;;
17171;SDS011;8701;50.150;8.756;2023-08-17T00:15:31;2.60;;;2.40;;
17171;SDS011;8701;50.150;8.756;2023-08-17T00:19:33;5.17;;;2.70;;
17171;SDS011;8701;50.150;8.756;2023-08-17T00:23:36;6.10;;;2.20;;
17171;SDS011;8701;50.150;8.756;2023-08-17T00:27:40;6.73;;;2.60;;
17171;SDS011;8701;50.150;8.756;2023-08-17T00:31:42;6.73;;;3.00;;
17171;SDS011;8701;50.150;8.756;2023-08-17T00:35:44;3.23;;;2.23;;
17171;SDS011;8701;50.150;8.756;2023-08-17T00:39:47;4.47;;;2.37;;
17171;SDS011;8701;50.150;8.756;2023-08-17T00:43:50;5.57;;;3.10;;
17171;SDS011;8701;50.150;8.756;2023-08-17T00:47:53;3.57;;;2.63;;
17171;SDS011;8701;50.150;8.756;2023-08-17T00:51:59;3.43;;;2.83;;
17171;SDS011;8701;50.150;8.756;2023-08-17T00:56:02;4.40;;;2.70;;
17171;SDS011;8701;50.150;8.756;2023-08-17T01:00:07;5.10;;;2.70;;
17171;SDS011;8701;50.150;8.756;2023-08-17T01:04:12;3.30;;;3.00;;
17171;SDS011;8701;50.150;8.756;2023-08-17T01:08:14;4.00;;;2.63;;
17171;SDS011;8701;50.150;8.756;2023-08-17T01:12:17;3.20;;;2.67;;
17171;SDS011;8701;50.150;8.756;2023-08-17T01:16:33;4.90;;;3.17;;
17171;SDS011;8701;50.150;8.756;2023-08-17T01:20:40;9.10;;;4.90;;
17171;SDS011;8701;50.150;8.756;2023-08-17T01:24:43;13.00;;;5.63;;
17171;SDS011;8701;50.150;8.756;2023-08-17T01:28:46;8.57;;;6.00;;
17171;SDS011;8701;50.150;8.756;2023-08-17T01:32:50;8.20;;;5.47;;
17171;SDS011;8701;50.150;8.756;2023-08-17T01:36:56;9.33;;;4.40;;
17171;SDS011;8701;50.150;8.756;2023-08-17T01:41:03;6.33;;;4.00;;
17171;SDS011;8701;50.150;8.756;2023-08-17T01:45:06;7.13;;;4.70;;
17171;SDS011;8701;50.150;8.756;2023-08-17T01:49:10;6.00;;;4.30;;
17171;SDS011;8701;50.150;8.756;2023-08-17T01:53:12;7.13;;;4.90;;
17171;SDS011;8701;50.150;8.756;2023-08-17T01:57:17;8.30;;;4.80;;
17171;SDS011;8701;50.150;8.756;2023-08-17T02:01:19;6.60;;;5.57;;
17171;SDS011;8701;50.150;8.756;2023-08-17T02:05:21;7.17;;;6.20;;
17171;SDS011;8701;50.150;8.756;2023-08-17T02:09:24;10.70;;;7.83;;
17171;SDS011;8701;50.150;8.756;2023-08-17T02:13:27;7.37;;;6.57;;
17171;SDS011;8701;50.150;8.756;2023-08-17T02:17:34;11.57;;;7.70;;
17171;SDS011;8701;50.150;8.756;2023-08-17T02:21:37;10.73;;;7.10;;
17171;SDS011;8701;50.150;8.756;2023-08-17T02:25:39;9.37;;;6.70;;
17171;SDS011;8701;50.150;8.756;2023-08-17T02:29:43;13.90;;;6.37;;
17171;SDS011;8701;50.150;8.756;2023-08-17T02:33:45;6.97;;;5.47;;
17171;SDS011;8701;50.150;8.756;2023-08-17T02:37:47;11.70;;;6.10;;
17171;SDS011;8701;50.150;8.756;2023-08-17T02:41:49;7.60;;;4.90;;
17171;SDS011;8701;50.150;8.756;2023-08-17T02:45:53;8.43;;;4.63;;
17171;SDS011;8701;50.150;8.756;2023-08-17T02:49:55;10.33;;;3.67;;
17171;SDS011;8701;50.150;8.756;2023-08-17T02:53:57;10.40;;;3.53;;
17171;SDS011;8701;50.150;8.756;2023-08-17T02:58:00;6.00;;;3.93;;
17171;SDS011;8701;50.150;8.756;2023-08-17T03:02:04;7.50;;;3.53;;
17171;SDS011;8701;50.150;8.756;2023-08-17T03:06:09;13.20;;;4.13;;
17171;SDS011;8701;50.150;8.756;2023-08-17T03:10:14;8.10;;;3.50;;
17171;SDS011;8701;50.150;8.756;2023-08-17T03:14:16;13.30;;;3.60;;
17171;SDS011;8701;50.150;8.756;2023-08-17T03:18:20;7.37;;;3.70;;
17171;SDS011;8701;50.150;8.756;2023-08-17T03:22:22;4.30;;;3.37;;
17171;SDS011;8701;50.150;8.756;2023-08-17T03:26:24;5.00;;;3.17;;
17171;SDS011;8701;50.150;8.756;2023-08-17T03:30:27;5.10;;;3.33;;
17171;SDS011;8701;50.150;8.756;2023-08-17T03:34:30;6.27;;;3.77;;
17171;SDS011;8701;50.150;8.756;2023-08-17T03:38:35;9.53;;;3.60;;
17171;SDS011;8701;50.150;8.756;2023-08-17T03:42:40;3.40;;;3.10;;
17171;SDS011;8701;50.150;8.756;2023-08-17T03:46:43;4.63;;;3.70;;
17171;SDS011;8701;50.150;8.756;2023-08-17T03:50:47;6.10;;;3.43;;
17171;SDS011;8701;50.150;8.756;2023-08-17T03:54:52;7.47;;;3.90;;
17171;SDS011;8701;50.150;8.756;2023-08-17T03:58:54;4.80;;;3.70;;
17171;SDS011;8701;50.150;8.756;2023-08-17T04:02:57;4.07;;;3.67;;
17171;SDS011;8701;50.150;8.756;2023-08-17T04:07:01;4.27;;;3.37;;
17171;SDS011;8701;50.150;8.756;2023-08-17T04:11:03;6.73;;;3.60;;
17171;SDS011;8701;50.150;8.756;2023-08-17T04:15:06;6.90;;;4.00;;
17171;SDS011;8701;50.150;8.756;2023-08-17T04:19:08;4.93;;;4.53;;
17171;SDS011;8701;50.150;8.756;2023-08-17T04:23:12;5.53;;;4.00;;
17171;SDS011;8701;50.150;8.756;2023-08-17T04:27:16;6.57;;;3.80;;
17171;SDS011;8701;50.150;8.756;2023-08-17T04:31:18;6.70;;;4.73;;
17171;SDS011;8701;50.150;8.756;2023-08-17T04:35:28;5.93;;;4.83;;
17171;SDS011;8701;50.150;8.756;2023-08-17T04:39:31;11.10;;;4.23;;
17171;SDS011;8701;50.150;8.756;2023-08-17T04:43:33;9.00;;;4.90;;
17171;SDS011;8701;50.150;8.756;2023-08-17T04:47:37;6.33;;;4.80;;
17171;SDS011;8701;50.150;8.756;2023-08-17T04:51:39;10.50;;;6.17;;
17171;SDS011;8701;50.150;8.756;2023-08-17T04:55:43;9.47;;;6.73;;
17171;SDS011;8701;50.150;8.756;2023-08-17T04:59:45;17.53;;;5.40;;
17171;SDS011;8701;50.150;8.756;2023-08-17T05:03:50;7.33;;;5.50;;
17171;SDS011;8701;50.150;8.756;2023-08-17T05:07:53;8.33;;;5.60;;
17171;SDS011;8701;50.150;8.756;2023-08-17T05:11:56;8.40;;;5.93;;
17171;SDS011;8701;50.150;8.756;2023-08-17T05:15:59;8.90;;;6.60;;
17171;SDS011;8701;50.150;8.756;2023-08-17T05:20:02;9.63;;;7.60;;
17171;SDS011;8701;50.150;8.756;2023-08-17T05:24:05;7.47;;;5.80;;
17171;SDS011;8701;50.150;8.756;2023-08-17T05:28:09;9.63;;;7.33;;
17171;SDS011;8701;50.150;8.756;2023-08-17T05:32:12;10.83;;;7.87;;
17171;SDS011;8701;50.150;8.756;2023-08-17T05:36:16;8.80;;;7.20;;
17171;SDS011;8701;50.150;8.756;2023-08-17T05:40:18;24.43;;;7.50;;
17171;SDS011;8701;50.150;8.756;2023-08-17T05:44:22;9.00;;;6.50;;
17171;SDS011;8701;50.150;8.756;2023-08-17T05:48:24;8.83;;;6.30;;
17171;SDS011;8701;50.150;8.756;2023-08-17T05:52:26;8.00;;;6.67;;
17171;SDS011;8701;50.150;8.756;2023-08-17T05:56:29;6.90;;;5.80;;
17171;SDS011;8701;50.150;8.756;2023-08-17T06:00:32;12.50;;;5.53;;
17171;SDS011;8701;50.150;8.756;2023-08-17T06:04:35;8.93;;;6.77;;
17171;SDS011;8701;50.150;8.756;2023-08-17T06:08:37;4.80;;;4.30;;
17171;SDS011;8701;50.150;8.756;2023-08-17T06:12:40;6.40;;;5.20;;
17171;SDS011;8701;50.150;8.756;2023-08-17T06:16:43;4.90;;;4.10;;
17171;SDS011;8701;50.150;8.756;2023-08-17T06:20:45;5.60;;;4.67;;
17171;SDS011;8701;50.150;8.756;2023-08-17T06:24:48;5.53;;;4.13;;
17171;SDS011;8701;50.150;8.756;2023-08-17T06:28:50;6.07;;;4.63;;
17171;SDS011;8701;50.150;8.756;2023-08-17T06:32:54;5.93;;;4.20;;
17171;SDS011;8701;50.150;8.756;2023-08-17T06:36:57;8.33;;;4.30;;
17171;SDS011;8701;50.150;8.756;2023-08-17T06:41:00;6.37;;;4.40;;
17171;SDS011;8701;50.150;8.756;2023-08-17T06:45:02;11.27;;;4.83;;
17171;SDS011;8701;50.150;8.756;2023-08-17T06:49:07;5.30;;;4.40;;
17171;SDS011;8701;50.150;8.756;2023-08-17T06:53:10;9.57;;;3.67;;
17171;SDS011;8701;50.150;8.756;2023-08-17T06:57:12;3.90;;;3.50;;
17171;SDS011;8701;50.150;8.756;2023-08-17T07:01:14;4.70;;;3.10;;
17171;SDS011;8701;50.150;8.756;2023-08-17T07:05:18;5.73;;;2.93;;
17171;SDS011;8701;50.150;8.756;2023-08-17T07:09:20;3.77;;;3.07;;
17171;SDS011;8701;50.150;8.756;2023-08-17T07:13:22;4.10;;;3.27;;
17171;SDS011;8701;50.150;8.756;2023-08-17T07:17:24;5.67;;;3.63;;
17171;SDS011;8701;50.150;8.756;2023-08-17T07:21:28;5.10;;;3.50;;
17171;SDS011;8701;50.150;8.756;2023-08-17T07:25:30;5.20;;;3.13;;
17171;SDS011;8701;50.150;8.756;2023-08-17T07:29:33;3.93;;;3.53;;
17171;SDS011;8701;50.150;8.756;2023-08-17T07:33:35;6.90;;;3.40;;
17171;SDS011;8701;50.150;8.756;2023-08-17T07:37:39;5.10;;;4.00;;
17171;SDS011;8701;50.150;8.756;2023-08-17T07:41:41;8.80;;;3.77;;
17171;SDS011;8701;50.150;8.756;2023-08-17T07:45:43;5.03;;;3.93;;
17171;SDS011;8701;50.150;8.756;2023-08-17T07:49:46;5.33;;;3.40;;
17171;SDS011;8701;50.150;8.756;2023-08-17T07:53:49;6.30;;;3.63;;
17171;SDS011;8701;50.150;8.756;2023-08-17T07:57:51;4.17;;;3.40;;
17171;SDS011;8701;50.150;8.756;2023-08-17T08:01:54;4.07;;;3.20;;
17171;SDS011;8701;50.150;8.756;2023-08-17T08:05:56;3.90;;;3.10;;
17171;SDS011;8701;50.150;8.756;2023-08-17T08:10:00;6.80;;;2.77;;
17171;SDS011;8701;50.150;8.756;2023-08-17T08:14:02;3.33;;;2.17;;
17171;SDS011;8701;50.150;8.756;2023-08-17T08:18:04;2.23;;;2.13;;
17171;SDS011;8701;50.150;8.756;2023-08-17T08:22:06;3.80;;;2.07;;
17171;SDS011;8701;50.150;8.756;2023-08-17T08:26:10;2.47;;;2.03;;
17171;SDS011;8701;50.150;8.756;2023-08-17T08:30:12;2.87;;;2.20;;
17171;SDS011;8701;50.150;8.756;2023-08-17T08:34:15;4.20;;;2.10;;
17171;SDS011;8701;50.150;8.756;2023-08-17T08:38:17;8.90;;;2.17;;
17171;SDS011;8701;50.150;8.756;2023-08-17T08:42:21;3.10;;;1.80;;
17171;SDS011;8701;50.150;8.756;2023-08-17T08:46:24;2.17;;;1.90;;
17171;SDS011;8701;50.150;8.756;2023-08-17T08:50:31;2.23;;;1.53;;
17171;SDS011;8701;50.150;8.756;2023-08-17T08:54:37;2.40;;;1.30;;
17171;SDS011;8701;50.150;8.756;2023-08-17T08:58:44;1.60;;;1.50;;
17171;SDS011;8701;50.150;8.756;2023-08-17T09:02:48;6.30;;;2.00;;
17171;SDS011;8701;50.150;8.756;2023-08-17T09:06:51;4.07;;;1.20;;
17171;SDS011;8701;50.150;8.756;2023-08-17T09:10:53;3.70;;;3.50;;
17171;SDS011;8701;50.150;8.756;2023-08-17T09:14:56;1.70;;;1.47;;
17171;SDS011;8701;50.150;8.756;2023-08-17T09:18:59;2.03;;;1.30;;
17171;SDS011;8701;50.150;8.756;2023-08-17T09:23:02;3.87;;;1.07;;
17171;SDS011;8701;50.150;8.756;2023-08-17T09:27:05;3.50;;;1.30;;
17171;SDS011;8701;50.150;8.756;2023-08-17T09:31:15;4.57;;;1.23;;
17171;SDS011;8701;50.150;8.756;2023-08-17T09:35:17;1.97;;;1.00;;
17171;SDS011;8701;50.150;8.756;2023-08-17T09:39:20;2.80;;;1.30;;
17171;SDS011;8701;50.150;8.756;2023-08-17T09:43:22;4.00;;;1.20;;
17171;SDS011;8701;50.150;8.756;2023-08-17T09:47:26;8.33;;;2.07;;
17171;SDS011;8701;50.150;8.756;2023-08-17T09:51:28;4.50;;;1.00;;
17171;SDS011;8701;50.150;8.756;2023-08-17T09:55:31;1.50;;;1.40;;
17171;SDS011;8701;50.150;8.756;2023-08-17T09:59:34;1.43;;;1.33;;
17171;SDS011;8701;50.150;8.756;2023-08-17T10:03:38;1.40;;;1.30;;
17171;SDS011;8701;50.150;8.756;2023-08-17T10:07:46;2.30;;;1.23;;
17171;SDS011;8701;50.150;8.756;2023-08-17T10:11:49;1.30;;;1.20;;
17171;SDS011;8701;50.150;8.756;2023-08-17T10:15:55;2.67;;;1.20;;
17171;SDS011;8701;50.150;8.756;2023-08-17T10:20:05;4.30;;;1.20;;
17171;SDS011;8701;50.150;8.756;2023-08-17T10:24:08;1.83;;;1.40;;
17171;SDS011;8701;50.150;8.756;2023-08-17T10:28:12;1.30;;;1.20;;
17171;SDS011;8701;50.150;8.756;2023-08-17T10:32:14;1.77;;;1.30;;
17171;SDS011;8701;50.150;8.756;2023-08-17T10:36:18;1.73;;;1.20;;
17171;SDS011;8701;50.150;8.756;2023-08-17T10:40:25;1.10;;;1.00;;
17171;SDS011;8701;50.150;8.756;2023-08-17T10:44:38;2.20;;;1.30;;
17171;SDS011;8701;50.150;8.756;2023-08-17T10:48:43;2.70;;;1.10;;
17171;SDS011;8701;50.150;8.756;2023-08-17T10:52:47;1.77;;;1.20;;
17171;SDS011;8701;50.150;8.756;2023-08-17T10:56:50;1.43;;;1.30;;
17171;SDS011;8701;50.150;8.756;2023-08-17T11:00:55;1.80;;;1.53;;
17171;SDS011;8701;50.150;8.756;2023-08-17T11:04:58;1.93;;;1.70;;
17171;SDS011;8701;50.150;8.756;2023-08-17T11:09:05;2.03;;;1.40;;
17171;SDS011;8701;50.150;8.756;2023-08-17T11:13:08;1.90;;;1.77;;
17171;SDS011;8701;50.150;8.756;2023-08-17T11:17:10;1.57;;;1.40;;
17171;SDS011;8701;50.150;8.756;2023-08-17T11:21:13;4.07;;;1.50;;
17171;SDS011;8701;50.150;8.756;2023-08-17T11:25:17;7.70;;;1.07;;
17171;SDS011;8701;50.150;8.756;2023-08-17T11:29:20;2.03;;;0.90;;
17171;SDS011;8701;50.150;8.756;2023-08-17T11:33:25;1.80;;;1.27;;
17171;SDS011;8701;50.150;8.756;2023-08-17T11:37:27;2.40;;;1.10;;
17171;SDS011;8701;50.150;8.756;2023-08-17T11:41:31;1.67;;;1.30;;
17171;SDS011;8701;50.150;8.756;2023-08-17T11:45:34;1.90;;;1.30;;
17171;SDS011;8701;50.150;8.756;2023-08-17T11:49:36;1.40;;;1.03;;
17171;SDS011;8701;50.150;8.756;2023-08-17T11:53:38;1.00;;;1.00;;
17171;SDS011;8701;50.150;8.756;2023-08-17T11:57:42;1.73;;;1.00;;
17171;SDS011;8701;50.150;8.756;2023-08-17T12:01:45;2.13;;;1.00;;
17171;SDS011;8701;50.150;8.756;2023-08-17T12:05:47;0.90;;;0.90;;
17171;SDS011;8701;50.150;8.756;2023-08-17T12:09:52;1.00;;;1.00;;
17171;SDS011;8701;50.150;8.756;2023-08-17T12:13:56;0.90;;;0.90;;
17171;SDS011;8701;50.150;8.756;2023-08-17T12:18:00;1.10;;;0.90;;
17171;SDS011;8701;50.150;8.756;2023-08-17T12:22:04;0.97;;;0.97;;
17171;SDS011;8701;50.150;8.756;2023-08-17T12:26:06;1.13;;;1.13;;
17171;SDS011;8701;50.150;8.756;2023-08-17T12:30:13;5.70;;;1.20;;
17171;SDS011;8701;50.150;8.756;2023-08-17T12:34:25;1.03;;;1.03;;
17171;SDS011;8701;50.150;8.756;2023-08-17T12:38:27;1.13;;;1.03;;
17171;SDS011;8701;50.150;8.756;2023-08-17T12:42:29;1.33;;;1.10;;
17171;SDS011;8701;50.150;8.756;2023-08-17T12:46:33;3.00;;;1.53;;
17171;SDS011;8701;50.150;8.756;2023-08-17T12:50:35;1.40;;;1.30;;
17171;SDS011;8701;50.150;8.756;2023-08-17T12:54:37;1.50;;;1.40;;
17171;SDS011;8701;50.150;8.756;2023-08-17T12:58:40;2.20;;;2.00;;
17171;SDS011;8701;50.150;8.756;2023-08-17T13:02:43;1.50;;;1.40;;
17171;SDS011;8701;50.150;8.756;2023-08-17T13:06:47;1.43;;;1.33;;
17171;SDS011;8701;50.150;8.756;2023-08-17T13:10:52;3.07;;;2.07;;
17171;SDS011;8701;50.150;8.756;2023-08-17T13:14:54;1.63;;;1.40;;
17171;SDS011;8701;50.150;8.756;2023-08-17T13:18:57;1.60;;;1.50;;
17171;SDS011;8701;50.150;8.756;2023-08-17T13:22:59;1.40;;;1.30;;
17171;SDS011;8701;50.150;8.756;2023-08-17T13:27:02;1.83;;;1.70;;
17171;SDS011;8701;50.150;8.756;2023-08-17T13:31:05;1.47;;;1.37;;
17171;SDS011;8701;50.150;8.756;2023-08-17T13:35:09;1.90;;;1.80;;
17171;SDS011;8701;50.150;8.756;2023-08-17T13:39:11;1.80;;;1.57;;
17171;SDS011;8701;50.150;8.756;2023-08-17T13:43:13;2.00;;;1.90;;
17171;SDS011;8701;50.150;8.756;2023-08-17T13:47:16;1.80;;;1.70;;
17171;SDS011;8701;50.150;8.756;2023-08-17T13:51:19;2.10;;;2.00;;
17171;SDS011;8701;50.150;8.756;2023-08-17T13:55:21;2.00;;;1.80;;
17171;SDS011;8701;50.150;8.756;2023-08-17T13:59:24;1.77;;;1.67;;
17171;SDS011;8701;50.150;8.756;2023-08-17T14:03:26;3.00;;;1.80;;
17171;SDS011;8701;50.150;8.756;2023-08-17T14:07:30;2.63;;;1.80;;
17171;SDS011;8701;50.150;8.756;2023-08-17T14:11:32;5.57;;;1.70;;
17171;SDS011;8701;50.150;8.756;2023-08-17T14:15:34;1.93;;;1.83;;
17171;SDS011;8701;50.150;8.756;2023-08-17T14:19:36;1.87;;;1.77;;
17171;SDS011;8701;50.150;8.756;2023-08-17T14:23:40;2.00;;;1.90;;
17171;SDS011;8701;50.150;8.756;2023-08-17T14:27:42;2.53;;;2.00;;
17171;SDS011;8701;50.150;8.756;2023-08-17T14:31:44;2.00;;;1.90;;
17171;SDS011;8701;50.150;8.756;2023-08-17T14:35:46;4.90;;;1.90;;
17171;SDS011;8701;50.150;8.756;2023-08-17T14:39:50;2.10;;;2.00;;
17171;SDS011;8701;50.150;8.756;2023-08-17T14:43:52;3.10;;;1.83;;
17171;SDS011;8701;50.150;8.756;2023-08-17T14:47:54;1.90;;;1.80;;
17171;SDS011;8701;50.150;8.756;2023-08-17T14:51:58;1.97;;;1.87;;
17171;SDS011;8701;50.150;8.756;2023-08-17T14:56:01;1.90;;;1.80;;
17171;SDS011;8701;50.150;8.756;2023-08-17T15:00:04;4.33;;;1.80;;
17171;SDS011;8701;50.150;8.756;2023-08-17T15:04:09;2.00;;;1.80;;
17171;SDS011;8701;50.150;8.756;2023-08-17T15:08:11;2.07;;;1.90;;
17171;SDS011;8701;50.150;8.756;2023-08-17T15:12:14;1.70;;;1.60;;
17171;SDS011;8701;50.150;8.756;2023-08-17T15:16:17;1.93;;;1.83;;
17171;SDS011;8701;50.150;8.756;2023-08-17T15:20:25;3.27;;;1.83;;
17171;SDS011;8701;50.150;8.756;2023-08-17T15:24:30;2.60;;;2.07;;
17171;SDS011;8701;50.150;8.756;2023-08-17T15:28:33;2.10;;;1.90;;
17171;SDS011;8701;50.150;8.756;2023-08-17T15:32:37;2.00;;;1.90;;
17171;SDS011;8701;50.150;8.756;2023-08-17T15:36:39;3.43;;;2.20;;
17171;SDS011;8701;50.150;8.756;2023-08-17T15:40:41;1.93;;;1.83;;
17171;SDS011;8701;50.150;8.756;2023-08-17T15:44:44;5.30;;;2.33;;
17171;SDS011;8701;50.150;8.756;2023-08-17T15:48:47;2.20;;;2.00;;
17171;SDS011;8701;50.150;8.756;2023-08-17T15:52:49;2.30;;;2.10;;
17171;SDS011;8701;50.150;8.756;2023-08-17T15:56:51;2.10;;;2.00;;
17171;SDS011;8701;50.150;8.756;2023-08-17T16:00:55;2.40;;;2.20;;
17171;SDS011;8701;50.150;8.756;2023-08-17T16:04:57;2.17;;;1.97;;
17171;SDS011;8701;50.150;8.756;2023-08-17T16:08:59;2.03;;;1.93;;
17171;SDS011;8701;50.150;8.756;2023-08-17T16:13:01;2.40;;;2.20;;
17171;SDS011;8701;50.150;8.756;2023-08-17T16:17:05;2.23;;;2.03;;
17171;SDS011;8701;50.150;8.756;2023-08-17T16:21:07;2.03;;;1.93;;
17171;SDS011;8701;50.150;8.756;2023-08-17T16:25:10;2.53;;;1.80;;
17171;SDS011;8701;50.150;8.756;2023-08-17T16:29:12;2.20;;;2.10;;
17171;SDS011;8701;50.150;8.756;2023-08-17T16:33:15;2.20;;;2.03;;
17171;SDS011;8701;50.150;8.756;2023-08-17T16:37:17;2.10;;;1.90;;
17171;SDS011;8701;50.150;8.756;2023-08-17T16:41:20;5.83;;;2.10;;
17171;SDS011;8701;50.150;8.756;2023-08-17T16:45:22;2.73;;;1.90;;
17171;SDS011;8701;50.150;8.756;2023-08-17T16:49:26;2.50;;;2.03;;
17171;SDS011;8701;50.150;8.756;2023-08-17T16:53:28;2.50;;;2.30;;
17171;SDS011;8701;50.150;8.756;2023-08-17T16:57:30;2.07;;;1.97;;
17171;SDS011;8701;50.150;8.756;2023-08-17T17:01:32;2.30;;;2.10;;
17171;SDS011;8701;50.150;8.756;2023-08-17T17:05:36;2.93;;;1.90;;
17171;SDS011;8701;50.150;8.756;2023-08-17T17:09:38;2.23;;;2.10;;
17171;SDS011;8701;50.150;8.756;2023-08-17T17:13:40;2.10;;;1.90;;
17171;SDS011;8701;50.150;8.756;2023-08-17T17:17:44;2.20;;;2.10;;
17171;SDS011;8701;50.150;8.756;2023-08-17T17:21:48;2.17;;;1.97;;
17171;SDS011;8701;50.150;8.756;2023-08-17T17:25:50;1.87;;;1.70;;
17171;SDS011;8701;50.150;8.756;2023-08-17T17:29:52;1.83;;;1.73;;
17171;SDS011;8701;50.150;8.756;2023-08-17T17:33:55;2.23;;;2.00;;
17171;SDS011;8701;50.150;8.756;2023-08-17T17:37:58;6.37;;;2.73;;
17171;SDS011;8701;50.150;8.756;2023-08-17T17:42:00;2.57;;;2.37;;
17171;SDS011;8701;50.150;8.756;2023-08-17T17:46:03;4.27;;;2.10;;
17171;SDS011;8701;50.150;8.756;2023-08-17T17:50:05;2.10;;;1.80;;
17171;SDS011;8701;50.150;8.756;2023-08-17T17:54:09;2.83;;;2.47;;
17171;SDS011;8701;50.150;8.756;2023-08-17T17:58:11;5.40;;;2.13;;
17171;SDS011;8701;50.150;8.756;2023-08-17T18:02:13;3.00;;;1.93;;
17171;SDS011;8701;50.150;8.756;2023-08-17T18:06:16;2.33;;;2.13;;
17171;SDS011;8701;50.150;8.756;2023-08-17T18:10:19;2.30;;;2.10;;
17171;SDS011;8701;50.150;8.756;2023-08-17T18:14:21;2.43;;;2.23;;
17171;SDS011;8701;50.150;8.756;2023-08-17T18:18:23;2.63;;;2.43;;
17171;SDS011;8701;50.150;8.756;2023-08-17T18:22:26;2.47;;;2.27;;
17171;SDS011;8701;50.150;8.756;2023-08-17T18:26:29;2.30;;;2.10;;
17171;SDS011;8701;50.150;8.756;2023-08-17T18:30:31;3.17;;;2.50;;
17171;SDS011;8701;50.150;8.756;2023-08-17T18:34:34;4.60;;;2.50;;
17171;SDS011;8701;50.150;8.756;2023-08-17T18:38:36;4.20;;;2.40;;
17171;SDS011;8701;50.150;8.756;2023-08-17T18:42:39;3.87;;;2.17;;
17171;SDS011;8701;50.150;8.756;2023-08-17T18:46:42;2.70;;;2.27;;
17171;SDS011;8701;50.150;8.756;2023-08-17T18:50:44;2.37;;;2.17;;
17171;SDS011;8701;50.150;8.756;2023-08-17T18:54:58;2.60;;;2.40;;
17171;SDS011;8701;50.150;8.756;2023-08-17T18:59:02;2.33;;;2.00;;
17171;SDS011;8701;50.150;8.756;2023-08-17T19:03:04;2.47;;;2.27;;
17171;SDS011;8701;50.150;8.756;2023-08-17T19:07:07;2.03;;;1.93;;
17171;SDS011;8701;50.150;8.756;2023-08-17T19:11:09;2.70;;;2.50;;
17171;SDS011;8701;50.150;8.756;2023-08-17T19:15:12;2.40;;;2.20;;
17171;SDS011;8701;50.150;8.756;2023-08-17T19:19:15;1.90;;;1.80;;
17171;SDS011;8701;50.150;8.756;2023-08-17T19:23:17;3.10;;;1.90;;
17171;SDS011;8701;50.150;8.756;2023-08-17T19:27:19;2.87;;;2.60;;
17171;SDS011;8701;50.150;8.756;2023-08-17T19:31:23;2.50;;;2.30;;
17171;SDS011;8701;50.150;8.756;2023-08-17T19:35:25;2.33;;;2.13;;
17171;SDS011;8701;50.150;8.756;2023-08-17T19:39:28;3.13;;;2.30;;
17171;SDS011;8701;50.150;8.756;2023-08-17T19:43:30;1.83;;;1.67;;
17171;SDS011;8701;50.150;8.756;2023-08-17T19:47:34;2.30;;;2.10;;
17171;SDS011;8701;50.150;8.756;2023-08-17T19:51:36;3.00;;;2.33;;
17171;SDS011;8701;50.150;8.756;2023-08-17T19:55:40;2.27;;;2.10;;
17171;SDS011;8701;50.150;8.756;2023-08-17T19:59:42;2.50;;;2.23;;
17171;SDS011;8701;50.150;8.756;2023-08-17T20:03:46;2.73;;;2.07;;
17171;SDS011;8701;50.150;8.756;2023-08-17T20:07:50;2.10;;;1.90;;
17171;SDS011;8701;50.150;8.756;2023-08-17T20:11:52;5.20;;;2.23;;
17171;SDS011;8701;50.150;8.756;2023-08-17T20:15:54;2.70;;;2.40;;
17171;SDS011;8701;50.150;8.756;2023-08-17T20:19:58;2.23;;;2.03;;
17171;SDS011;8701;50.150;8.756;2023-08-17T20:24:00;2.60;;;2.40;;
17171;SDS011;8701;50.150;8.756;2023-08-17T20:28:03;2.63;;;2.30;;
17171;SDS011;8701;50.150;8.756;2023-08-17T20:32:05;2.80;;;2.40;;
17171;SDS011;8701;50.150;8.756;2023-08-17T20:36:09;3.27;;;2.17;;
17171;SDS011;8701;50.150;8.756;2023-08-17T20:40:11;3.67;;;2.40;;
17171;SDS011;8701;50.150;8.756;2023-08-17T20:44:13;3.33;;;3.03;;
17171;SDS011;8701;50.150;8.756;2023-08-17T20:48:16;3.67;;;2.27;;
17171;SDS011;8701;50.150;8.756;2023-08-17T20:52:20;4.63;;;2.50;;
17171;SDS011;8701;50.150;8.756;2023-08-17T20:56:22;2.30;;;2.20;;
17171;SDS011;8701;50.150;8.756;2023-08-17T21:00:25;2.40;;;2.20;;
17171;SDS011;8701;50.150;8.756;2023-08-17T21:04:27;2.93;;;2.60;;
17171;SDS011;8701;50.150;8.756;2023-08-17T21:08:30;3.47;;;2.57;;
17171;SDS011;8701;50.150;8.756;2023-08-17T21:12:33;5.43;;;3.00;;
17171;SDS011;8701;50.150;8.756;2023-08-17T21:16:35;2.70;;;2.50;;
17171;SDS011;8701;50.150;8.756;2023-08-17T21:20:39;5.87;;;3.27;;
17171;SDS011;8701;50.150;8.756;2023-08-17T21:24:43;4.43;;;3.60;;
17171;SDS011;8701;50.150;8.756;2023-08-17T21:28:45;3.00;;;2.80;;
17171;SDS011;8701;50.150;8.756;2023-08-17T21:32:47;3.23;;;2.83;;
17171;SDS011;8701;50.150;8.756;2023-08-17T21:36:50;3.07;;;2.83;;
17171;SDS011;8701;50.150;8.756;2023-08-17T21:40:57;3.00;;;2.80;;
17171;SDS011;8701;50.150;8.756;2023-08-17T21:45:00;6.80;;;2.70;;
17171;SDS011;8701;50.150;8.756;2023-08-17T21:49:02;3.10;;;2.67;;
17171;SDS011;8701;50.150;8.756;2023-08-17T21:53:05;3.67;;;3.03;;
17171;SDS011;8701;50.150;8.756;2023-08-17T21:57:10;7.70;;;2.93;;
17171;SDS011;8701;50.150;8.756;2023-08-17T22:01:13;3.40;;;3.10;;
17171;SDS011;8701;50.150;8.756;2023-08-17T22:05:15;3.90;;;3.60;;
17171;SDS011;8701;50.150;8.756;2023-08-17T22:09:17;4.00;;;3.30;;
17171;SDS011;8701;50.150;8.756;2023-08-17T22:13:21;5.17;;;3.10;;
17171;SDS011;8701;50.150;8.756;2023-08-17T22:17:23;4.60;;;3.03;;
17171;SDS011;8701;50.150;8.756;2023-08-17T22:21:25;3.63;;;3.20;;
17171;SDS011;8701;50.150;8.756;2023-08-17T22:25:28;8.00;;;3.37;;
17171;SDS011;8701;50.150;8.756;2023-08-17T22:29:31;3.63;;;3.30;;
17171;SDS011;8701;50.150;8.756;2023-08-17T22:33:34;4.60;;;2.93;;
17171;SDS011;8701;50.150;8.756;2023-08-17T22:37:36;3.63;;;3.33;;
17171;SDS011;8701;50.150;8.756;2023-08-17T22:41:38;3.50;;;3.20;;
17171;SDS011;8701;50.150;8.756;2023-08-17T22:45:42;3.20;;;3.00;;
17171;SDS011;8701;50.150;8.756;2023-08-17T22:49:44;5.33;;;3.20;;
17171;SDS011;8701;50.150;8.756;2023-08-17T22:53:46;4.30;;;3.50;;
17171;SDS011;8701;50.150;8.756;2023-08-17T22:57:49;6.00;;;4.03;;
17171;SDS011;8701;50.150;8.756;2023-08-17T23:01:52;4.90;;;3.93;;
17171;SDS011;8701;50.150;8.756;2023-08-17T23:05:55;3.83;;;3.53;;
17171;SDS011;8701;50.150;8.756;2023-08-17T23:10:01;5.47;;;3.63;;
17171;SDS011;8701;50.150;8.756;2023-08-17T23:14:03;4.17;;;3.37;;
17171;SDS011;8701;50.150;8.756;2023-08-17T23:18:07;6.50;;;4.10;;
17171;SDS011;8701;50.150;8.756;2023-08-17T23:22:09;12.10;;;4.40;;
17171;SDS011;8701;50.150;8.756;2023-08-17T23:26:11;4.17;;;3.83;;
17171;SDS011;8701;50.150;8.756;2023-08-17T23:30:14;5.30;;;4.37;;
17171;SDS011;8701;50.150;8.756;2023-08-17T23:34:18;5.50;;;4.07;;
17171;SDS011;8701;50.150;8.756;2023-08-17T23:38:20;4.53;;;4.13;;
17171;SDS011;8701;50.150;8.756;2023-08-17T23:42:22;6.03;;;4.00;;
17171;SDS011;8701;50.150;8.756;2023-08-17T23:46:25;5.00;;;4.50;;
17171;SDS011;8701;50.150;8.756;2023-08-17T23:50:28;4.47;;;4.00;;
17171;SDS011;8701;50.150;8.756;2023-08-17T23:54:30;4.50;;;4.10;;
17171;SDS011;8701;50.150;8.756;2023-08-17T23:58:33;4.90;;;4.40;;
